Time;durP1;ratioP1;P1;durP2;ratioP2;P2;SDS_P1;SDS_P2;PMS_P1;PMS_P2;Temp;Humidity;BMP_temperature;BMP_pressure;BME280_temperature;BME280_humidity;BME280_pressure;Samples;Min_cycle;Max_cycle;Signal;HPM_P1;HPM_P2
2022/01/15 00:01:50;;;;;;;88.68;49.05;;;2.60;98.40;;;;;;5026722;28;20033;-75
2022/01/15 00:04:16;;;;;;;68.35;44.70;;;2.70;98.40;;;;;;5027989;28;20083;-76
2022/01/15 00:06:42;;;;;;;69.13;45.92;;;2.70;98.50;;;;;;5026661;28;20030;-76
2022/01/15 00:09:08;;;;;;;89.40;50.58;;;2.80;98.50;;;;;;5026797;28;20499;-76
2022/01/15 00:11:37;;;;;;;86.78;51.80;;;2.90;98.40;;;;;;5026558;28;20460;-76
2022/01/15 00:14:13;;;;;;;77.03;48.95;;;2.90;98.30;;;;;;5027757;28;20064;-75
2022/01/15 00:19:41;;;;;;;73.38;45.22;;;2.90;98.30;;;;;;5024011;28;20450;-76
2022/01/15 00:22:11;;;;;;;87.53;49.13;;;2.90;98.10;;;;;;5027793;28;20510;-76
2022/01/15 00:24:37;;;;;;;67.93;42.20;;;2.80;98.10;;;;;;5026520;28;20061;-76
2022/01/15 00:27:04;;;;;;;82.30;46.28;;;2.70;98.30;;;;;;5009944;28;20034;-75
2022/01/15 00:29:31;;;;;;;93.72;52.85;;;2.70;98.50;;;;;;5027823;28;20035;-75
2022/01/15 00:31:58;;;;;;;86.63;49.47;;;2.70;98.60;;;;;;5027562;28;20348;-75
2022/01/15 00:34:24;;;;;;;90.15;53.05;;;2.80;98.70;;;;;;5026385;28;20032;-76
2022/01/15 00:36:49;;;;;;;85.35;47.00;;;2.90;98.80;;;;;;5009672;28;20029;-75
2022/01/15 00:39:15;;;;;;;93.72;50.58;;;3.00;98.80;;;;;;5009956;28;20032;-76
2022/01/15 00:41:41;;;;;;;75.72;41.83;;;3.00;99.00;;;;;;5025972;28;20483;-76
2022/01/15 00:44:07;;;;;;;75.88;45.63;;;3.10;99.10;;;;;;5026378;28;20073;-75
2022/01/15 00:46:32;;;;;;;87.07;48.58;;;3.30;99.10;;;;;;5010120;28;20535;-75
2022/01/15 00:48:58;;;;;;;106.03;51.95;;;3.40;99.00;;;;;;5026387;28;20108;-75
2022/01/15 00:51:24;;;;;;;76.75;44.67;;;3.60;98.80;;;;;;5026342;28;20502;-75
2022/01/15 00:53:50;;;;;;;;;;;3.70;98.60;;;;;;5010391;28;20034;-75
2022/01/15 00:56:16;;;;;;;82.15;44.92;;;3.80;98.50;;;;;;5025983;28;19921;-75
2022/01/15 00:58:42;;;;;;;91.65;48.90;;;3.90;98.40;;;;;;5025918;28;20070;-76
2022/01/15 01:01:07;;;;;;;77.45;46.28;;;3.90;98.40;;;;;;5025562;28;20399;-76
2022/01/15 01:03:33;;;;;;;81.88;48.53;;;3.90;98.30;;;;;;5009312;28;20121;-76
2022/01/15 01:05:59;;;;;;;93.60;49.05;;;3.90;98.40;;;;;;5025590;28;20037;-75
2022/01/15 01:08:25;;;;;;;81.57;46.15;;;3.80;98.40;;;;;;5027551;28;20377;-76
2022/01/15 01:24:17;;;;;;;71.75;42.03;;;4.30;98.50;;;;;;5031117;28;20029;-75
2022/01/15 01:30:13;;;;;;;76.07;44.97;;;4.30;98.20;;;;;;5030974;28;20487;-75
2022/01/15 01:32:10;;;;;;;82.13;44.53;;;4.40;98.20;;;;;;5025028;28;20494;-76
2022/01/15 01:34:39;;;;;;;93.57;50.88;;;4.30;98.30;;;;;;5013987;28;20063;-76
2022/01/15 01:44:42;;;;;;;78.30;45.72;;;4.40;98.90;;;;;;5029372;28;20419;-76
2022/01/15 01:47:24;;;;;;;73.55;44.75;;;4.40;98.80;;;;;;5029124;28;20032;-75
2022/01/15 01:49:49;;;;;;;73.85;44.40;;;4.50;98.80;;;;;;5014318;28;20033;-76
2022/01/15 01:52:15;;;;;;;87.00;49.15;;;4.60;98.70;;;;;;5012643;28;20049;-76
2022/01/15 01:54:41;;;;;;;86.00;46.85;;;4.70;98.70;;;;;;5029029;28;20393;-75
2022/01/15 01:57:07;;;;;;;82.00;46.30;;;4.70;98.60;;;;;;5012446;28;20045;-76
2022/01/15 01:59:33;;;;;;;79.95;46.90;;;4.70;98.70;;;;;;5012519;28;20237;-76
2022/01/15 02:01:59;;;;;;;85.80;48.45;;;4.80;98.80;;;;;;5028610;28;20033;-76
2022/01/15 02:04:24;;;;;;;74.38;45.88;;;4.80;98.70;;;;;;5029716;28;20384;-76
2022/01/15 02:06:50;;;;;;;78.00;48.25;;;4.80;98.70;;;;;;5028232;28;20041;-76
2022/01/15 02:09:17;;;;;;;74.78;49.03;;;4.80;98.80;;;;;;5011791;28;20391;-76
2022/01/15 02:11:43;;;;;;;86.82;51.00;;;4.90;98.70;;;;;;5011965;28;20479;-75
2022/01/15 02:14:09;;;;;;;79.63;48.85;;;4.90;98.50;;;;;;5028491;28;20048;-75
2022/01/15 02:16:35;;;;;;;86.70;49.58;;;4.90;98.40;;;;;;5028658;28;20040;-75
2022/01/15 02:19:00;;;;;;;78.88;48.00;;;4.80;98.50;;;;;;5029761;28;20053;-76
2022/01/15 02:24:11;;;;;;;70.30;45.20;;;4.80;98.80;;;;;;5029164;28;20036;-76
2022/01/15 02:26:39;;;;;;;72.90;48.17;;;4.90;98.80;;;;;;5029793;28;20380;-76
2022/01/15 02:29:07;;;;;;;68.72;46.53;;;4.90;98.70;;;;;;5029437;28;20022;-76
2022/01/15 02:31:35;;;;;;;72.18;46.72;;;4.90;98.80;;;;;;5029213;28;20079;-76
2022/01/15 02:34:03;;;;;;;64.03;43.40;;;4.90;99.00;;;;;;5029234;28;20030;-76
2022/01/15 02:36:31;;;;;;;83.20;48.33;;;5.00;99.00;;;;;;5029013;28;20032;-76
2022/01/15 02:38:57;;;;;;;75.53;48.42;;;5.10;99.00;;;;;;5029581;28;20034;-76
2022/01/15 02:41:27;;;;;;;71.50;43.45;;;5.20;98.90;;;;;;5029373;28;20033;-75
2022/01/15 02:43:53;;;;;;;77.07;47.42;;;5.20;98.90;;;;;;5029423;28;20026;-76
2022/01/15 02:48:56;;;;;;;73.53;46.80;;;5.20;98.90;;;;;;5028334;28;20076;-76
2022/01/15 02:51:25;;;;;;;69.30;43.90;;;5.20;98.90;;;;;;5029376;28;20028;-76
2022/01/15 02:53:55;;;;;;;68.20;44.05;;;5.20;99.00;;;;;;5027815;28;20025;-75
2022/01/15 02:56:37;;;;;;;60.33;44.60;;;5.20;99.00;;;;;;5027671;28;20043;-76
2022/01/15 02:59:05;;;;;;;58.28;39.58;;;5.30;98.90;;;;;;5026992;28;20109;-75
2022/01/15 03:01:32;;;;;;;68.25;44.35;;;5.20;99.00;;;;;;5011175;28;20050;-76
2022/01/15 03:03:58;;;;;;;65.40;41.30;;;5.20;99.10;;;;;;5028991;28;20053;-75
2022/01/15 03:06:24;;;;;;;66.50;40.85;;;5.30;99.20;;;;;;5027578;28;20403;-76
2022/01/15 03:08:51;;;;;;;62.67;38.10;;;5.40;99.20;;;;;;5028948;28;20044;-76
2022/01/15 03:11:18;;;;;;;60.20;39.50;;;5.50;99.20;;;;;;5028750;28;20052;-76
2022/01/15 03:13:45;;;;;;;58.08;39.88;;;5.60;99.20;;;;;;5027378;28;20036;-76
2022/01/15 03:16:13;;;;;;;58.28;40.05;;;5.60;99.10;;;;;;5027419;28;20029;-76
2022/01/15 03:18:39;;;;;;;51.20;38.63;;;5.70;99.00;;;;;;5027415;28;20087;-76
2022/01/15 03:21:05;;;;;;;56.10;39.00;;;5.70;99.10;;;;;;5027573;28;20034;-76
2022/01/15 03:23:31;;;;;;;62.33;41.60;;;5.70;99.20;;;;;;5027498;28;20033;-76
2022/01/15 03:25:57;;;;;;;55.13;40.10;;;5.80;99.20;;;;;;5028543;28;20103;-75
2022/01/15 03:28:22;;;;;;;63.53;42.88;;;5.80;99.20;;;;;;5027183;28;20468;-76
2022/01/15 03:30:48;;;;;;;61.67;41.90;;;5.80;99.20;;;;;;5026900;28;20048;-76
2022/01/15 03:33:14;;;;;;;63.65;43.80;;;5.80;99.20;;;;;;5028256;28;20032;-76
2022/01/15 03:35:41;;;;;;;59.67;41.00;;;5.80;99.10;;;;;;5010337;28;20040;-76
2022/01/15 03:38:07;;;;;;;60.83;41.88;;;5.80;99.10;;;;;;5026964;28;20034;-76
2022/01/15 03:40:33;;;;;;;52.50;38.00;;;5.80;99.10;;;;;;5026908;28;20310;-76
2022/01/15 03:43:00;;;;;;;57.90;40.00;;;5.90;99.10;;;;;;5026800;28;20048;-75
2022/01/15 03:45:26;;;;;;;53.85;38.22;;;5.90;99.10;;;;;;5026961;28;20025;-76
2022/01/15 03:47:52;;;;;;;46.95;37.08;;;6.00;99.10;;;;;;5027150;28;20028;-76
2022/01/15 03:50:19;;;;;;;63.78;39.15;;;5.90;99.10;;;;;;5027071;28;20030;-75
2022/01/15 03:52:45;;;;;;;53.05;38.10;;;5.90;99.20;;;;;;5026984;28;20025;-75
2022/01/15 03:55:12;;;;;;;;;;;6.00;99.30;;;;;;5011019;28;20045;-75
2022/01/15 03:57:39;;;;;;;51.33;37.13;;;6.00;99.30;;;;;;5028132;28;19917;-76
2022/01/15 04:00:38;;;;;;;54.08;38.72;;;6.00;99.20;;;;;;5010417;28;20060;-75
2022/01/15 04:03:04;;;;;;;50.25;35.78;;;6.10;99.20;;;;;;5017846;28;20038;-76
2022/01/15 04:05:30;;;;;;;53.38;38.00;;;6.10;99.20;;;;;;5027912;28;20113;-75
2022/01/15 04:07:56;;;;;;;56.35;35.33;;;6.10;99.10;;;;;;5010254;28;20088;-75
2022/01/15 04:10:22;;;;;;;46.15;33.65;;;6.10;99.10;;;;;;5027768;28;20475;-75
2022/01/15 04:12:48;;;;;;;49.00;35.38;;;6.10;99.20;;;;;;5026751;28;20053;-76
2022/01/15 04:15:16;;;;;;;58.45;36.92;;;6.10;99.30;;;;;;5026428;28;20455;-75
2022/01/15 04:17:47;;;;;;;48.92;37.40;;;6.10;99.30;;;;;;5026283;28;20047;-76
2022/01/15 04:20:16;;;;;;;46.80;36.58;;;6.20;99.30;;;;;;5027792;28;20021;-76
2022/01/15 04:22:42;;;;;;;49.42;37.05;;;6.20;99.30;;;;;;5027862;28;20104;-76
2022/01/15 04:25:08;;;;;;;49.75;36.83;;;6.30;99.30;;;;;;5027704;28;20113;-76
2022/01/15 04:27:34;;;;;;;43.47;35.67;;;6.30;99.40;;;;;;5026346;28;20124;-76
2022/01/15 04:30:03;;;;;;;43.67;36.38;;;6.30;99.30;;;;;;5026548;28;20109;-76
2022/01/15 04:32:30;;;;;;;46.92;33.40;;;6.40;99.40;;;;;;5027564;28;20033;-76
2022/01/15 04:34:56;;;;;;;41.42;33.00;;;6.40;99.20;;;;;;5009822;28;20052;-76
2022/01/15 04:37:24;;;;;;;52.15;36.00;;;6.50;99.20;;;;;;5027496;28;20332;-76
2022/01/15 04:39:51;;;;;;;42.00;35.30;;;6.50;99.20;;;;;;5027606;28;20029;-76
2022/01/15 04:42:20;;;;;;;43.80;35.15;;;6.50;99.20;;;;;;5026089;28;20048;-75
2022/01/15 04:44:46;;;;;;;49.95;37.00;;;6.60;99.20;;;;;;5029274;28;20487;-76
2022/01/15 04:47:12;;;;;;;46.30;35.47;;;6.70;99.20;;;;;;5030159;28;20064;-76
2022/01/15 04:49:38;;;;;;;50.55;36.78;;;6.60;99.20;;;;;;5030238;28;20066;-76
2022/01/15 04:52:04;;;;;;;51.15;37.28;;;6.70;99.30;;;;;;5030299;28;20033;-76
2022/01/15 04:54:30;;;;;;;45.42;35.85;;;6.70;99.30;;;;;;5031344;28;20403;-76
2022/01/15 04:56:55;;;;;;;47.47;35.30;;;6.80;99.40;;;;;;5031319;28;20030;-75
2022/01/15 04:59:23;;;;;;;44.72;36.38;;;6.80;99.40;;;;;;5030147;28;20784;-76
2022/01/15 05:01:50;;;;;;;53.10;39.38;;;6.80;99.40;;;;;;5029924;28;20075;-75
2022/01/15 05:04:16;;;;;;;48.65;37.58;;;6.90;99.40;;;;;;5031451;28;20030;-76
2022/01/15 05:06:42;;;;;;;44.17;37.75;;;6.80;99.40;;;;;;5031199;28;20408;-76
2022/01/15 05:09:07;;;;;;;52.08;35.95;;;6.80;99.50;;;;;;5029744;28;20518;-75
2022/01/15 05:11:55;;;;;;;48.13;38.40;;;6.80;99.50;;;;;;5029741;28;20033;-76
2022/01/15 05:14:20;;;;;;;51.47;37.40;;;6.80;99.60;;;;;;5030965;28;20109;-76
2022/01/15 05:16:46;;;;;;;52.03;37.30;;;6.80;99.50;;;;;;5031042;28;20104;-76
2022/01/15 05:19:12;;;;;;;54.15;39.80;;;6.80;99.60;;;;;;5030319;28;20156;-76
2022/01/15 05:21:38;;;;;;;54.70;37.00;;;6.70;99.60;;;;;;5013412;28;20062;-76
2022/01/15 05:24:05;;;;;;;;;;;6.70;99.80;;;;;;5031431;28;20030;-76
2022/01/15 05:26:30;;;;;;;52.55;37.53;;;6.70;99.80;;;;;;5030970;28;19905;-76
2022/01/15 05:28:56;;;;;;;52.45;37.75;;;6.80;99.70;;;;;;5029693;28;20521;-76
2022/01/15 05:31:24;;;;;;;52.45;37.25;;;6.90;99.70;;;;;;5029564;28;20034;-76
2022/01/15 05:33:50;;;;;;;48.20;37.50;;;6.90;99.60;;;;;;5030634;28;20044;-76
2022/01/15 05:36:16;;;;;;;50.53;36.08;;;6.90;99.70;;;;;;5012853;28;20042;-75
2022/01/15 05:38:42;;;;;;;54.72;36.80;;;6.90;99.70;;;;;;5029246;28;20104;-76
2022/01/15 05:41:07;;;;;;;48.47;36.75;;;6.90;99.70;;;;;;5029412;28;20487;-76
2022/01/15 05:43:33;;;;;;;51.90;37.40;;;6.80;99.80;;;;;;5029443;28;20070;-76
2022/01/15 05:45:59;;;;;;;50.97;37.05;;;6.80;99.80;;;;;;5030461;28;20057;-75
2022/01/15 05:48:24;;;;;;;56.03;37.72;;;6.80;99.90;;;;;;5029271;28;20044;-75
2022/01/15 05:50:50;;;;;;;47.85;38.03;;;6.80;99.90;;;;;;5029180;28;20112;-76
2022/01/15 05:53:16;;;;;;;54.78;39.20;;;6.80;99.90;;;;;;5029143;28;20029;-75
2022/01/15 05:55:41;;;;;;;51.53;38.45;;;6.90;99.90;;;;;;5028367;28;20066;-76
2022/01/15 05:58:07;;;;;;;51.10;39.53;;;6.80;99.90;;;;;;5029094;28;20033;-75
2022/01/15 06:00:34;;;;;;;48.97;37.92;;;6.80;99.90;;;;;;5029130;28;20435;-76
2022/01/15 06:03:00;;;;;;;54.35;37.60;;;6.80;99.90;;;;;;5028738;28;20029;-76
2022/01/15 06:05:26;;;;;;;51.92;38.75;;;6.80;99.90;;;;;;5030073;28;20080;-76
2022/01/15 06:07:52;;;;;;;55.22;38.47;;;6.90;99.90;;;;;;5028839;28;20042;-76
2022/01/15 06:10:18;;;;;;;65.75;38.95;;;6.90;99.90;;;;;;5012404;28;20422;-76
2022/01/15 06:12:44;;;;;;;54.72;37.78;;;6.90;99.90;;;;;;5012222;28;20064;-76
2022/01/15 06:15:14;;;;;;;63.13;37.72;;;6.90;99.90;;;;;;5028541;28;20491;-76
2022/01/15 06:17:41;;;;;;;50.40;38.42;;;6.90;99.90;;;;;;5029920;28;20052;-76
2022/01/15 06:20:08;;;;;;;54.85;38.35;;;6.90;99.90;;;;;;5028493;28;20037;-75
2022/01/15 06:22:34;;;;;;;49.83;39.20;;;7.00;99.90;;;;;;5029668;28;20041;-75
2022/01/15 06:25:02;;;;;;;55.05;39.50;;;7.00;99.90;;;;;;5029558;28;20450;-76
2022/01/15 06:27:28;;;;;;;51.00;38.00;;;7.00;99.90;;;;;;5012122;28;20502;-76
2022/01/15 06:29:56;;;;;;;51.05;37.47;;;7.00;99.90;;;;;;5028460;28;20037;-76
2022/01/15 06:32:22;;;;;;;59.30;38.65;;;7.10;99.90;;;;;;5028359;28;20033;-76
2022/01/15 06:34:48;;;;;;;;;;;7.10;99.90;;;;;;5028670;28;20544;-76
2022/01/15 06:37:14;;;;;;;57.60;38.50;;;7.10;99.90;;;;;;5028076;28;19960;-76
2022/01/15 06:39:39;;;;;;;50.78;37.75;;;7.10;99.90;;;;;;5029915;28;20455;-75
2022/01/15 06:42:05;;;;;;;51.90;38.85;;;7.10;99.90;;;;;;5027903;28;20054;-76
2022/01/15 06:44:31;;;;;;;51.42;37.55;;;7.20;99.90;;;;;;5028220;28;20380;-76
2022/01/15 06:46:56;;;;;;;52.78;37.78;;;7.20;99.90;;;;;;5028159;28;20029;-75
2022/01/15 06:49:22;;;;;;;52.92;38.00;;;7.20;99.90;;;;;;5029285;28;20492;-76
2022/01/15 06:51:48;;;;;;;59.90;38.88;;;7.20;99.90;;;;;;5028365;28;20357;-75
2022/01/15 06:54:14;;;;;;;55.28;40.00;;;7.20;99.90;;;;;;5027859;28;20041;-75
2022/01/15 06:56:39;;;;;;;55.17;38.95;;;7.20;99.90;;;;;;5029201;28;20072;-75
2022/01/15 06:59:05;;;;;;;55.17;38.55;;;7.20;99.90;;;;;;5027883;28;20037;-76
2022/01/15 07:01:31;;;;;;;53.50;38.80;;;7.30;99.90;;;;;;5028999;28;20033;-75
2022/01/15 07:03:57;;;;;;;50.08;37.03;;;7.30;99.90;;;;;;5027635;28;20045;-76
2022/01/15 07:06:22;;;;;;;53.50;39.78;;;7.30;99.90;;;;;;5026456;28;20086;-76
2022/01/15 07:08:48;;;;;;;55.35;39.58;;;7.30;99.90;;;;;;5028839;28;20479;-76
2022/01/15 07:11:14;;;;;;;51.55;37.33;;;7.30;99.90;;;;;;5011155;28;20522;-76
2022/01/15 07:13:39;;;;;;;49.63;38.20;;;7.30;99.90;;;;;;5010927;28;20166;-76
2022/01/15 07:16:05;;;;;;;53.33;38.20;;;7.30;99.90;;;;;;5027145;28;20555;-76
2022/01/15 07:18:32;;;;;;;51.38;39.33;;;7.30;99.90;;;;;;5027588;28;20040;-76
2022/01/15 07:20:58;;;;;;;55.38;40.58;;;7.40;99.90;;;;;;5010843;28;20033;-76
2022/01/15 07:23:24;;;;;;;51.28;38.45;;;7.40;99.90;;;;;;5010935;28;20025;-76
2022/01/15 07:25:49;;;;;;;54.97;39.75;;;7.40;99.90;;;;;;5027273;28;20041;-76
2022/01/15 07:28:18;;;;;;;47.40;36.80;;;7.50;99.90;;;;;;5027143;28;20498;-76
2022/01/15 07:30:43;;;;;;;59.22;39.95;;;7.50;99.90;;;;;;5028396;28;20037;-76
2022/01/15 07:33:09;;;;;;;55.45;40.40;;;7.50;99.90;;;;;;5027089;28;20026;-76
2022/01/15 07:35:35;;;;;;;50.95;39.35;;;7.50;99.90;;;;;;5027017;28;20029;-76
2022/01/15 07:38:01;;;;;;;60.63;38.25;;;7.50;99.90;;;;;;5028242;28;20025;-76
2022/01/15 07:40:26;;;;;;;57.35;40.58;;;7.50;99.90;;;;;;5028239;28;20029;-76
2022/01/15 07:42:52;;;;;;;63.22;40.85;;;7.50;99.90;;;;;;5026731;28;20094;-76
2022/01/15 07:45:18;;;;;;;69.68;44.38;;;7.50;99.90;;;;;;5028122;28;20038;-76
2022/01/15 07:47:44;;;;;;;65.88;43.25;;;7.50;99.90;;;;;;5028077;28;20025;-76
2022/01/15 07:50:12;;;;;;;;;;;7.60;99.90;;;;;;5028508;28;20045;-76
2022/01/15 07:52:37;;;;;;;54.63;38.33;;;7.60;99.90;;;;;;5026665;28;19963;-76
2022/01/15 07:55:04;;;;;;;59.20;40.47;;;7.50;99.90;;;;;;5028092;28;20057;-76
2022/01/15 07:57:30;;;;;;;59.72;41.97;;;7.60;99.90;;;;;;5010151;28;20061;-76
2022/01/15 07:59:56;;;;;;;66.47;41.42;;;7.60;99.90;;;;;;5010185;28;20053;-75
2022/01/15 08:02:21;;;;;;;59.05;40.58;;;7.60;99.90;;;;;;5009938;28;20029;-75
2022/01/15 08:04:47;;;;;;;56.25;39.13;;;7.60;99.90;;;;;;5026446;28;20021;-76
2022/01/15 08:07:13;;;;;;;51.10;36.33;;;7.60;99.90;;;;;;5026458;28;20059;-76
2022/01/15 08:09:39;;;;;;;51.03;37.63;;;7.60;99.90;;;;;;5026401;28;20375;-76
2022/01/15 08:12:05;;;;;;;47.60;35.15;;;7.60;99.90;;;;;;5026162;28;20038;-76
2022/01/15 08:14:32;;;;;;;50.92;33.40;;;7.70;99.90;;;;;;5027468;28;20574;-76
2022/01/15 08:16:58;;;;;;;45.30;35.03;;;7.70;99.90;;;;;;5027293;28;20037;-76
2022/01/15 08:19:23;;;;;;;44.53;33.88;;;7.80;99.90;;;;;;5026441;28;20030;-76
2022/01/15 08:21:49;;;;;;;38.15;33.30;;;7.80;99.90;;;;;;5026513;28;20040;-76
2022/01/15 08:24:15;;;;;;;37.55;31.13;;;7.80;99.90;;;;;;5026229;28;20041;-76
2022/01/15 08:26:40;;;;;;;39.97;31.80;;;7.80;99.90;;;;;;5026665;28;20495;-76
2022/01/15 08:29:06;;;;;;;36.50;30.70;;;7.80;99.90;;;;;;5027377;28;20112;-76
2022/01/15 08:31:32;;;;;;;40.58;32.88;;;7.90;99.90;;;;;;5027549;28;20029;-76
2022/01/15 08:33:58;;;;;;;40.90;32.53;;;7.90;99.90;;;;;;5026311;28;20033;-76
2022/01/15 08:36:24;;;;;;;39.85;31.15;;;7.90;99.90;;;;;;5009327;28;20112;-76
2022/01/15 08:38:50;;;;;;;48.15;32.42;;;7.90;99.90;;;;;;5025682;28;20116;-77
2022/01/15 08:41:16;;;;;;;45.78;31.92;;;7.90;99.90;;;;;;5027141;28;20630;-76
2022/01/15 08:43:42;;;;;;;;;;;7.90;99.90;;;;;;5027539;28;20030;-76
2022/01/15 08:46:08;;;;;;;40.17;29.30;;;7.90;99.90;;;;;;5025648;28;20398;-76
2022/01/15 08:48:34;;;;;;;44.22;30.70;;;7.90;99.90;;;;;;5027234;28;20039;-76
2022/01/15 08:51:00;;;;;;;43.85;31.10;;;7.90;99.90;;;;;;5025701;28;20025;-76
2022/01/15 08:53:26;;;;;;;;;;;7.90;99.90;;;;;;5027559;28;20025;-76
2022/01/15 08:55:53;;;;;;;39.40;29.95;;;7.90;99.90;;;;;;5026807;28;19905;-76
2022/01/15 08:58:20;;;;;;;44.03;31.30;;;7.90;99.90;;;;;;5009176;28;20032;-76
2022/01/15 09:00:47;;;;;;;40.83;32.00;;;7.80;99.90;;;;;;5025766;28;20030;-76
2022/01/15 09:03:13;;;;;;;44.40;32.17;;;7.80;99.90;;;;;;5026767;28;20357;-76
2022/01/15 09:05:38;;;;;;;44.60;32.05;;;7.70;99.90;;;;;;5025012;28;20075;-77
2022/01/15 09:08:08;;;;;;;44.22;32.67;;;7.70;99.90;;;;;;5025200;28;20026;-74
2022/01/15 09:10:41;;;;;;;47.47;32.55;;;7.70;99.90;;;;;;5026630;28;20021;-74
2022/01/15 09:13:08;;;;;;;44.22;30.90;;;7.70;99.90;;;;;;5025419;28;20022;-76
2022/01/15 09:15:34;;;;;;;46.60;31.48;;;7.70;99.90;;;;;;5025233;28;20116;-76
2022/01/15 09:18:00;;;;;;;40.60;31.25;;;7.70;99.90;;;;;;5025145;28;20580;-76
2022/01/15 09:20:26;;;;;;;44.47;31.02;;;7.70;99.90;;;;;;5008807;28;20041;-76
2022/01/15 09:22:51;;;;;;;36.92;29.73;;;7.70;99.90;;;;;;5025608;28;20041;-76
2022/01/15 09:25:17;;;;;;;41.15;30.10;;;7.70;99.90;;;;;;5025353;28;20033;-76
2022/01/15 09:30:27;;;;;;;40.33;31.15;;;7.80;99.90;;;;;;5029311;28;20091;-76
2022/01/15 09:32:54;;;;;;;44.15;30.67;;;7.80;99.90;;;;;;5028931;28;20029;-75
2022/01/15 09:35:24;;;;;;;43.88;31.00;;;7.90;99.90;;;;;;5030326;28;20114;-76
2022/01/15 09:37:51;;;;;;;39.70;30.13;;;8.00;99.90;;;;;;5030180;28;20033;-76
2022/01/15 09:40:19;;;;;;;42.00;30.67;;;8.00;99.90;;;;;;5030191;28;20037;-76
2022/01/15 09:42:47;;;;;;;36.60;28.98;;;8.00;99.90;;;;;;5030026;28;20507;-76
2022/01/15 09:45:14;;;;;;;34.35;26.60;;;8.10;99.90;;;;;;5029897;28;20071;-76
2022/01/15 09:47:40;;;;;;;38.28;30.80;;;8.10;99.90;;;;;;5028658;28;20025;-76
2022/01/15 09:50:08;;;;;;;;;;;8.10;99.90;;;;;;5030137;28;20144;-76
2022/01/15 09:52:35;;;;;;;;;;;8.20;99.90;;;;;;5030471;28;19916;-76
2022/01/15 09:55:02;;;;;;;35.83;29.92;;;8.30;99.90;;;;;;5029661;28;19910;-76
2022/01/15 09:57:28;;;;;;;38.80;30.50;;;8.30;99.90;;;;;;5029496;28;20046;-76
2022/01/15 09:59:54;;;;;;;38.10;30.77;;;8.30;99.90;;;;;;5028116;28;20053;-76
2022/01/15 10:02:20;;;;;;;37.80;31.95;;;8.30;99.90;;;;;;5031581;28;20037;-76
2022/01/15 10:04:45;;;;;;;45.92;31.13;;;8.30;99.90;;;;;;5028483;28;20053;-75
2022/01/15 10:07:13;;;;;;;33.95;30.20;;;8.40;99.90;;;;;;5028174;28;20513;-76
2022/01/15 10:09:41;;;;;;;37.60;31.67;;;8.40;99.90;;;;;;5029854;28;20030;-75
2022/01/15 10:12:07;;;;;;;35.88;29.45;;;8.50;99.90;;;;;;5030310;28;20037;-77
2022/01/15 10:14:42;;;;;;;38.92;30.05;;;8.50;99.90;;;;;;5031499;28;20030;-75
2022/01/15 10:17:23;;;;;;;39.60;29.83;;;8.50;99.90;;;;;;5029931;28;20032;-76
2022/01/15 10:19:51;;;;;;;38.40;29.77;;;8.60;99.90;;;;;;5029906;28;20021;-77
2022/01/15 10:22:22;;;;;;;33.80;29.50;;;8.70;99.90;;;;;;5032228;28;20057;-76
2022/01/15 10:25:14;;;;;;;38.55;30.42;;;8.80;99.90;;;;;;5029593;28;20024;-77
2022/01/15 10:27:41;;;;;;;35.67;30.27;;;8.90;99.90;;;;;;5029190;28;20029;-76
2022/01/15 10:30:12;;;;;;;30.67;27.67;;;9.00;99.90;;;;;;5013678;28;20033;-77
2022/01/15 10:33:08;;;;;;;31.65;27.63;;;9.10;99.90;;;;;;5029231;28;20128;-77
2022/01/15 10:35:41;;;;;;;31.65;26.77;;;9.20;99.90;;;;;;5018863;28;20057;-76
2022/01/15 10:38:10;;;;;;;30.88;25.77;;;9.40;99.90;;;;;;5029088;28;20029;-76
2022/01/15 10:40:50;;;;;;;26.85;24.35;;;9.50;99.90;;;;;;5030545;28;20022;-76
2022/01/15 10:43:18;;;;;;;27.42;25.00;;;9.60;99.90;;;;;;5030496;28;20125;-78
2022/01/15 10:45:51;;;;;;;26.10;23.38;;;9.70;99.90;;;;;;5029506;28;20121;-77
2022/01/15 10:48:21;;;;;;;25.08;22.75;;;9.80;99.90;;;;;;5029152;28;20079;-77
2022/01/15 10:51:02;;;;;;;24.05;21.52;;;9.80;99.90;;;;;;5029227;28;20029;-76
2022/01/15 10:53:37;;;;;;;25.85;23.20;;;9.90;99.90;;;;;;5029022;28;20021;-76
2022/01/15 10:56:06;;;;;;;25.10;22.42;;;9.90;99.90;;;;;;5028421;28;20040;-75
2022/01/15 10:58:31;;;;;;;25.08;22.48;;;9.90;99.90;;;;;;5028748;28;20095;-77
2022/01/15 11:00:57;;;;;;;19.95;17.95;;;9.90;99.90;;;;;;5030206;28;20625;-76
2022/01/15 11:03:33;;;;;;;19.33;17.30;;;9.80;99.90;;;;;;5012346;28;20030;-75
2022/01/15 11:05:59;;;;;;;17.67;15.20;;;9.80;99.90;;;;;;5021585;28;20060;-75
2022/01/15 11:08:28;;;;;;;18.65;15.85;;;9.70;99.90;;;;;;5028808;28;20034;-76
2022/01/15 11:11:04;;;;;;;17.23;15.45;;;9.70;99.90;;;;;;5021504;28;20095;-78
2022/01/15 11:13:33;;;;;;;17.77;15.93;;;9.60;99.90;;;;;;5029949;28;20407;-75
2022/01/15 11:16:05;;;;;;;16.85;14.95;;;9.60;99.90;;;;;;5031014;28;20266;-75
2022/01/15 11:18:36;;;;;;;17.48;15.77;;;9.50;99.90;;;;;;5030432;28;20029;-78
2022/01/15 11:21:13;;;;;;;16.02;14.43;;;9.50;99.90;;;;;;5031610;28;20384;-76
2022/01/15 11:23:40;;;;;;;16.85;15.10;;;9.50;99.90;;;;;;5029777;28;20021;-78
2022/01/15 11:26:12;;;;;;;18.00;16.10;;;9.40;99.90;;;;;;5029196;28;20026;-76
2022/01/15 11:28:38;;;;;;;19.98;16.13;;;9.40;99.90;;;;;;5031066;28;20056;-75
2022/01/15 11:31:08;;;;;;;;;;;9.40;99.90;;;;;;5032166;28;20133;-76
2022/01/15 11:33:40;;;;;;;21.23;17.30;;;9.40;99.90;;;;;;5026157;28;20043;-74
2022/01/15 11:36:07;;;;;;;19.00;17.23;;;9.40;99.90;;;;;;5029513;28;20083;-76
2022/01/15 11:38:45;;;;;;;17.92;16.08;;;9.50;99.90;;;;;;5029099;28;20087;-74
2022/01/15 11:41:26;;;;;;;17.92;16.17;;;9.50;99.90;;;;;;5027916;28;20014;-75
2022/01/15 11:43:53;;;;;;;18.13;14.02;;;9.50;99.90;;;;;;5028047;28;20049;-75
2022/01/15 11:46:33;;;;;;;21.10;15.60;;;9.50;99.90;;;;;;5030373;28;20344;-75
2022/01/15 11:49:34;;;;;;;20.00;17.00;;;9.60;99.90;;;;;;5023175;28;20092;-74
2022/01/15 11:52:08;;;;;;;21.33;17.40;;;9.60;99.90;;;;;;5026073;28;20063;-74
2022/01/15 11:54:35;;;;;;;19.90;17.73;;;9.60;99.90;;;;;;5030332;28;20371;-74
2022/01/15 11:57:02;;;;;;;21.23;18.38;;;9.70;99.90;;;;;;5028130;28;20036;-73
2022/01/15 11:59:47;;;;;;;19.70;17.77;;;9.80;99.90;;;;;;5027786;28;20380;-75
2022/01/15 12:02:35;;;;;;;21.75;18.83;;;9.90;99.90;;;;;;5027699;28;20025;-74
2022/01/15 12:05:19;;;;;;;25.40;18.58;;;9.90;99.90;;;;;;5026387;28;20022;-74
2022/01/15 12:08:00;;;;;;;25.60;19.13;;;10.00;99.90;;;;;;5028882;28;20061;-75
2022/01/15 12:10:41;;;;;;;22.98;18.50;;;10.00;99.90;;;;;;5027347;28;20143;-74
2022/01/15 12:13:18;;;;;;;25.95;20.50;;;10.10;99.90;;;;;;5025841;28;20490;-76
2022/01/15 12:15:45;;;;;;;18.48;16.52;;;10.10;99.90;;;;;;5019242;28;20026;-74
2022/01/15 12:18:15;;;;;;;16.38;14.50;;;10.20;99.90;;;;;;5028130;28;20480;-74
2022/01/15 12:20:42;;;;;;;25.40;18.05;;;10.20;99.90;;;;;;5029566;28;20077;-75
2022/01/15 12:23:19;;;;;;;;;;;10.30;99.90;;;;;;5028067;28;20447;-76
2022/01/15 12:25:52;;;;;;;23.45;18.35;;;10.30;99.90;;;;;;5028721;28;19924;-78
2022/01/15 12:28:19;;;;;;;19.00;16.95;;;10.40;99.90;;;;;;5026334;28;20030;-74
2022/01/15 12:30:48;;;;;;;19.13;17.13;;;10.40;99.90;;;;;;5027987;28;20032;-74
2022/01/15 12:33:16;;;;;;;19.95;15.85;;;10.40;99.90;;;;;;5026569;28;20025;-74
2022/01/15 12:35:47;;;;;;;19.73;17.73;;;10.40;99.90;;;;;;5027941;28;20487;-75
2022/01/15 12:38:25;;;;;;;21.70;18.40;;;10.50;99.90;;;;;;5027334;28;20024;-75
2022/01/15 12:40:56;;;;;;;21.52;18.08;;;10.50;99.90;;;;;;5026393;28;20547;-75
2022/01/15 12:43:32;;;;;;;19.80;17.70;;;10.50;99.90;;;;;;5028035;28;20124;-74
2022/01/15 12:46:13;;;;;;;17.63;15.60;;;10.50;99.90;;;;;;5027897;28;20120;-75
2022/01/15 12:48:45;;;;;;;18.83;16.90;;;10.50;99.90;;;;;;5028248;28;20079;-74
2022/01/15 12:51:20;;;;;;;17.77;15.00;;;10.50;99.90;;;;;;5027783;28;20455;-71
2022/01/15 12:53:50;;;;;;;21.73;17.10;;;10.60;99.90;;;;;;5027888;28;20033;-74
2022/01/15 12:56:18;;;;;;;18.15;15.20;;;10.60;99.90;;;;;;5028283;28;20392;-73
2022/01/15 12:58:44;;;;;;;15.65;14.05;;;10.50;99.90;;;;;;5029499;28;20074;-73
2022/01/15 13:01:11;;;;;;;17.90;14.32;;;10.50;99.90;;;;;;5028203;28;20057;-75
2022/01/15 13:03:39;;;;;;;25.40;13.85;;;10.50;99.90;;;;;;5025922;28;20064;-76
2022/01/15 13:06:07;;;;;;;19.55;14.70;;;10.50;99.90;;;;;;5030847;28;20454;-76
2022/01/15 13:08:39;;;;;;;18.98;15.23;;;10.50;99.90;;;;;;5030206;28;20105;-76
2022/01/15 13:13:43;;;;;;;20.50;14.88;;;10.50;99.90;;;;;;5031035;28;20195;-75
2022/01/15 13:16:15;;;;;;;21.48;16.13;;;10.50;99.90;;;;;;5031130;28;20021;-77
2022/01/15 13:18:55;;;;;;;21.17;17.35;;;10.50;99.90;;;;;;5030954;28;20049;-77
2022/01/15 13:21:25;;;;;;;21.20;18.70;;;10.50;99.90;;;;;;5030686;28;20017;-76